Time;durP1;ratioP1;P1;durP2;ratioP2;P2;SDS_P1;SDS_P2;PMS_P1;PMS_P2;Temp;Humidity;BMP_temperature;BMP_pressure;BME280_temperature;BME280_humidity;BME280_pressure;Samples;Min_cycle;Max_cycle;Signal;HPM_P1;HPM_P2
2024/02/20 00:01:40;;;;;;;4.90;4.40;;;;;;;4.27;100.00;99616.67;439171;1256;139285;-61
2024/02/20 00:11:46;;;;;;;4.90;4.00;;;;;;;4.31;100.00;99618.42;438323;1257;139503;-54
2024/02/20 00:21:52;;;;;;;3.90;3.40;;;;;;;4.37;100.00;99625.31;437908;1256;140168;-55
2024/02/20 00:31:59;;;;;;;5.20;4.70;;;;;;;4.43;100.00;99623.18;439055;1255;139580;-61
2024/02/20 00:42:07;;;;;;;7.40;3.70;;;;;;;4.46;100.00;99617.69;437001;1253;140190;-60
2024/02/20 00:52:15;;;;;;;7.50;4.30;;;;;;;4.48;100.00;99614.83;437922;1257;140253;-52
2024/02/20 01:02:20;;;;;;;6.70;4.20;;;;;;;4.51;100.00;99608.67;436888;1258;140093;-50
2024/02/20 01:12:27;;;;;;;7.00;5.70;;;;;;;4.55;100.00;99596.35;437800;1257;140659;-52
2024/02/20 01:22:32;;;;;;;7.30;6.20;;;;;;;4.55;100.00;99591.16;438616;1258;139769;-53
2024/02/20 01:32:41;;;;;;;6.70;6.10;;;;;;;4.58;100.00;99591.95;438049;1258;139758;-51
2024/02/20 01:42:58;;;;;;;5.30;4.60;;;;;;;4.61;100.00;99589.73;437474;1254;139572;-50
2024/02/20 01:53:05;;;;;;;7.00;5.20;;;;;;;4.63;100.00;99588.07;438550;1257;140673;-49
2024/02/20 02:03:10;;;;;;;;;;;;;;;4.68;100.00;99591.02;437390;1258;139699;-51
2024/02/20 02:13:18;;;;;;;4.20;3.60;;;;;;;4.69;100.00;99589.93;438172;1258;126038;-56
2024/02/20 02:23:24;;;;;;;3.80;3.50;;;;;;;4.72;100.00;99585.31;437892;1257;139994;-61
2024/02/20 02:33:33;;;;;;;5.40;4.60;;;;;;;4.74;100.00;99582.98;436970;1258;139912;-62
2024/02/20 02:43:40;;;;;;;5.20;4.70;;;;;;;4.69;100.00;99580.93;437163;1257;139761;-54
2024/02/20 02:53:49;;;;;;;11.50;7.70;;;;;;;4.70;100.00;99586.95;437453;1254;140315;-55
2024/02/20 03:03:55;;;;;;;10.90;7.60;;;;;;;4.72;100.00;99585.80;437873;1257;139657;-52
2024/02/20 03:14:01;;;;;;;9.30;8.50;;;;;;;4.71;100.00;99584.98;437022;1257;139955;-50
2024/02/20 03:24:09;;;;;;;8.90;7.80;;;;;;;4.70;100.00;99585.20;436916;1253;139743;-57
2024/02/20 03:34:15;;;;;;;13.80;9.30;;;;;;;4.69;100.00;99582.83;440671;1256;139818;-54
2024/02/20 03:44:21;;;;;;;9.00;8.20;;;;;;;4.63;100.00;99582.70;437058;1255;139608;-49
2024/02/20 03:54:27;;;;;;;9.60;7.30;;;;;;;4.60;100.00;99590.64;436793;1257;139463;-52
2024/02/20 04:04:34;;;;;;;10.20;9.10;;;;;;;4.58;100.00;99582.41;438323;1256;140380;-51
2024/02/20 04:14:40;;;;;;;8.70;7.50;;;;;;;4.55;100.00;99583.88;440456;1258;139802;-51
2024/02/20 04:24:47;;;;;;;10.40;9.40;;;;;;;4.53;100.00;99595.42;437640;1257;140353;-55
2024/02/20 04:34:53;;;;;;;10.20;8.80;;;;;;;4.53;100.00;99604.08;436878;1258;140775;-54
2024/02/20 04:45:01;;;;;;;8.00;7.20;;;;;;;4.53;100.00;99613.44;437434;1257;139883;-49
2024/02/20 04:55:08;;;;;;;7.40;6.70;;;;;;;4.49;100.00;99612.90;436873;1258;139827;-59
2024/02/20 05:05:16;;;;;;;6.40;5.70;;;;;;;4.42;100.00;99615.77;437457;1257;140555;-51
2024/02/20 05:15:22;;;;;;;9.00;5.30;;;;;;;4.35;100.00;99615.51;437032;1259;139552;-55
2024/02/20 05:25:28;;;;;;;4.90;3.80;;;;;;;4.30;100.00;99617.77;438121;1257;139812;-60
2024/02/20 05:35:34;;;;;;;4.70;3.90;;;;;;;4.27;100.00;99622.55;437987;1258;141454;-51
2024/02/20 05:45:44;;;;;;;6.00;4.60;;;;;;;4.33;100.00;99625.62;436927;1257;139952;-52
2024/02/20 05:55:52;;;;;;;4.90;4.40;;;;;;;4.40;100.00;99626.75;437421;1259;139418;-50
2024/02/20 06:05:58;;;;;;;5.70;4.50;;;;;;;4.46;100.00;99642.46;437143;1257;139438;-52
2024/02/20 06:16:05;;;;;;;6.90;5.20;;;;;;;4.51;100.00;99638.48;437728;1257;139092;-61
2024/02/20 06:26:16;;;;;;;11.50;9.10;;;;;;;4.53;100.00;99645.70;437088;1257;139414;-60
2024/02/20 06:36:22;;;;;;;11.20;9.50;;;;;;;4.57;100.00;99662.34;437563;1257;139845;-51
2024/02/20 06:46:30;;;;;;;14.60;12.60;;;;;;;4.68;100.00;99663.32;433299;1260;5118313;-53
2024/02/20 06:56:39;;;;;;;16.50;14.00;;;;;;;4.78;100.00;99661.02;437418;1258;139921;-55
2024/02/20 07:06:45;;;;;;;15.80;13.40;;;;;;;4.91;100.00;99664.02;437513;1255;143361;-54
2024/02/20 07:16:51;;;;;;;15.20;12.60;;;;;;;5.02;100.00;99665.48;437233;1255;140059;-61
2024/02/20 07:26:58;;;;;;;14.60;12.20;;;;;;;5.11;100.00;99673.48;437179;1254;140660;-62
2024/02/20 07:37:04;;;;;;;11.30;10.10;;;;;;;5.22;100.00;99678.41;437637;1256;139785;-60
2024/02/20 07:47:10;;;;;;;14.60;10.80;;;;;;;5.42;100.00;99679.66;437389;1257;140858;-63
2024/02/20 07:57:17;;;;;;;14.60;10.20;;;;;;;5.59;100.00;99686.08;437855;1254;140491;-70
2024/02/20 08:07:23;;;;;;;11.50;10.30;;;;;;;5.72;100.00;99696.98;437595;1257;141271;-66
2024/02/20 08:17:30;;;;;;;11.40;10.30;;;;;;;5.82;100.00;99692.44;440608;1254;140124;-61
2024/02/20 08:27:36;;;;;;;10.10;9.10;;;;;;;5.91;100.00;99689.08;439208;1254;140331;-59
2024/02/20 08:37:42;;;;;;;13.50;9.60;;;;;;;6.08;100.00;99688.55;439127;1254;139767;-60
2024/02/20 08:47:51;;;;;;;10.50;9.50;;;;;;;6.13;100.00;99687.98;437556;1257;139644;-68
2024/02/20 08:57:57;;;;;;;9.70;7.40;;;;;;;6.43;100.00;99694.17;437997;1254;139907;-68
2024/02/20 09:08:04;;;;;;;10.50;8.10;;;;;;;6.66;100.00;99700.23;437526;1257;140027;-61
2024/02/20 09:18:10;;;;;;;9.30;7.50;;;;;;;6.78;100.00;99704.08;437652;1254;140566;-64
2024/02/20 09:28:16;;;;;;;;;;;;;;;6.97;100.00;99711.73;438392;1254;139702;-66
2024/02/20 09:38:23;;;;;;;8.20;7.30;;;;;;;7.20;100.00;99710.95;440123;1257;125642;-66
2024/02/20 09:48:31;;;;;;;7.40;6.70;;;;;;;7.52;100.00;99717.64;438836;1257;139313;-66
2024/02/20 09:58:37;;;;;;;7.30;6.20;;;;;;;7.68;100.00;99718.40;437982;1255;139597;-73
2024/02/20 10:08:50;;;;;;;7.40;6.20;;;;;;;7.95;100.00;99721.77;438299;1256;139749;-68
2024/02/20 10:18:59;;;;;;;8.10;6.30;;;;;;;7.97;100.00;99718.66;438352;1257;139732;-65
2024/02/20 10:29:06;;;;;;;7.00;6.30;;;;;;;8.19;100.00;99713.02;437752;1257;139503;-69
2024/02/20 10:39:14;;;;;;;7.00;5.90;;;;;;;8.65;100.00;99708.94;437250;1254;140084;-62
2024/02/20 10:49:25;;;;;;;;;;;;;;;8.93;100.00;99708.83;437275;1256;139498;-60
2024/02/20 10:59:35;;;;;;;6.40;5.80;;;;;;;9.21;100.00;99712.67;438395;1257;127000;-58
2024/02/20 11:09:42;;;;;;;5.80;5.10;;;;;;;9.02;100.00;99706.40;438613;1257;140143;-58
2024/02/20 11:19:48;;;;;;;6.80;5.80;;;;;;;8.83;100.00;99706.35;439539;1254;142100;-59
2024/02/20 11:29:54;;;;;;;6.80;5.60;;;;;;;8.57;100.00;99704.27;439962;1253;139689;-64
2024/02/20 11:40:00;;;;;;;5.40;4.90;;;;;;;8.28;100.00;99703.33;437541;1254;140323;-57
2024/02/20 11:50:08;;;;;;;6.70;4.10;;;;;;;8.09;100.00;99702.23;436961;1257;139153;-62
2024/02/20 12:00:16;;;;;;;6.80;5.00;;;;;;;8.16;100.00;99694.21;438951;1257;140278;-67
2024/02/20 12:10:25;;;;;;;4.20;3.10;;;;;;;8.07;100.00;99698.14;437485;1254;138895;-65
2024/02/20 12:20:31;;;;;;;6.20;5.60;;;;;;;7.87;100.00;99696.36;436801;1254;139593;-59
2024/02/20 12:30:38;;;;;;;8.60;7.50;;;;;;;7.73;100.00;99690.10;436968;1257;139109;-61
2024/02/20 12:40:44;;;;;;;8.30;7.60;;;;;;;7.68;100.00;99684.41;438715;1253;139399;-54
2024/02/20 12:50:50;;;;;;;9.00;7.30;;;;;;;7.76;100.00;99680.73;438682;1256;139375;-55
2024/02/20 13:00:56;;;;;;;6.90;5.80;;;;;;;7.63;100.00;99674.75;442408;1256;139477;-59
2024/02/20 13:11:03;;;;;;;3.50;2.80;;;;;;;7.72;100.00;99673.59;437984;1255;139632;-66
2024/02/20 13:21:10;;;;;;;3.40;3.10;;;;;;;8.06;100.00;99673.96;437986;1253;139500;-62
2024/02/20 13:31:17;;;;;;;4.30;2.80;;;;;;;8.32;100.00;99676.27;439588;1251;139992;-64
2024/02/20 13:41:27;;;;;;;3.70;3.20;;;;;;;8.47;100.00;99684.20;437788;1253;140011;-63
2024/02/20 13:51:33;;;;;;;5.30;3.80;;;;;;;8.24;100.00;99685.92;438708;1256;140764;-72
2024/02/20 14:01:40;;;;;;;4.20;3.70;;;;;;;8.16;100.00;99684.05;437376;1257;140785;-68
2024/02/20 14:11:47;;;;;;;6.10;4.10;;;;;;;8.31;100.00;99680.69;437813;1253;140891;-58
2024/02/20 14:21:56;;;;;;;4.70;3.50;;;;;;;8.28;100.00;99682.91;442743;1253;139359;-58
2024/02/20 14:32:02;;;;;;;5.00;4.40;;;;;;;8.15;100.00;99691.59;439565;1253;139386;-61
2024/02/20 14:42:11;;;;;;;4.10;3.50;;;;;;;8.01;100.00;99699.83;439215;1253;139546;-57
2024/02/20 14:52:17;;;;;;;3.20;2.70;;;;;;;7.71;100.00;99707.61;441078;1255;139338;-57
2024/02/20 15:02:23;;;;;;;1.20;1.10;;;;;;;7.29;100.00;99719.91;438438;1256;139080;-59
2024/02/20 15:12:31;;;;;;;1.70;1.20;;;;;;;6.93;100.00;99728.62;441430;1253;141148;-60
2024/02/20 15:22:38;;;;;;;4.80;2.70;;;;;;;6.66;100.00;99734.88;437450;1253;139800;-58
2024/02/20 15:32:45;;;;;;;2.90;2.60;;;;;;;6.40;100.00;99742.46;447958;1253;140311;-56
2024/02/20 15:42:54;;;;;;;3.90;3.50;;;;;;;6.27;100.00;99751.70;451539;1253;139737;-64
2024/02/20 15:53:00;;;;;;;5.80;4.70;;;;;;;6.14;100.00;99762.36;451339;1253;140535;-60
2024/02/20 16:03:07;;;;;;;4.30;3.80;;;;;;;5.94;100.00;99775.18;451422;1256;140002;-64
2024/02/20 16:13:14;;;;;;;5.00;3.80;;;;;;;5.77;100.00;99786.44;451391;1253;139305;-68
2024/02/20 16:23:21;;;;;;;3.80;3.20;;;;;;;5.67;100.00;99795.16;451539;1252;139017;-59
2024/02/20 16:33:28;;;;;;;3.80;3.10;;;;;;;5.64;100.00;99797.57;451440;1253;140845;-60
2024/02/20 16:43:35;;;;;;;4.70;3.80;;;;;;;5.51;100.00;99810.23;451428;1253;140593;-59
2024/02/20 16:53:42;;;;;;;3.80;3.10;;;;;;;5.42;100.00;99820.48;448065;1253;139241;-60
2024/02/20 17:03:48;;;;;;;6.00;4.20;;;;;;;5.31;100.00;99834.79;451506;1253;140142;-62
2024/02/20 17:13:54;;;;;;;5.10;4.00;;;;;;;5.23;100.00;99841.52;451574;1253;139417;-64
2024/02/20 17:24:03;;;;;;;8.50;5.00;;;;;;;5.20;100.00;99848.20;451681;1254;138801;-65
2024/02/20 17:34:09;;;;;;;8.70;5.80;;;;;;;5.16;100.00;99850.60;451631;1252;139399;-66
2024/02/20 17:44:15;;;;;;;5.80;4.90;;;;;;;5.21;100.00;99852.16;437965;1257;139376;-59
2024/02/20 17:54:21;;;;;;;6.00;5.40;;;;;;;5.26;100.00;99859.29;451787;1253;139456;-59
2024/02/20 18:04:30;;;;;;;5.30;4.70;;;;;;;5.31;100.00;99870.02;451612;1253;139529;-57
2024/02/20 18:14:36;;;;;;;5.70;4.00;;;;;;;5.35;100.00;99887.56;451608;1253;139607;-58
2024/02/20 18:24:42;;;;;;;4.50;2.10;;;;;;;5.31;100.00;99896.92;451773;1254;139382;-59
2024/02/20 18:34:50;;;;;;;5.10;2.40;;;;;;;5.25;100.00;99905.99;451634;1254;139539;-57
2024/02/20 18:44:56;;;;;;;5.60;2.60;;;;;;;5.20;100.00;99907.95;447734;1253;5078058;-59
2024/02/20 18:55:02;;;;;;;4.20;2.70;;;;;;;5.11;100.00;99908.09;451747;1253;139623;-65
2024/02/20 19:05:09;;;;;;;4.20;2.30;;;;;;;5.06;100.00;99914.66;451688;1253;138882;-66
2024/02/20 19:15:16;;;;;;;5.20;2.70;;;;;;;5.02;100.00;99922.45;440269;1256;140023;-57
2024/02/20 19:25:22;;;;;;;5.50;2.60;;;;;;;4.97;100.00;99929.92;448131;1254;139133;-58
2024/02/20 19:35:30;;;;;;;5.60;2.70;;;;;;;4.89;100.00;99936.06;437013;1253;139588;-59
2024/02/20 19:45:36;;;;;;;3.80;2.30;;;;;;;4.83;100.00;99934.89;437086;1257;139557;-59
2024/02/20 19:55:43;;;;;;;3.80;2.70;;;;;;;4.80;100.00;99939.34;437415;1253;140841;-49
2024/02/20 20:05:51;;;;;;;5.50;2.80;;;;;;;4.75;100.00;99938.13;438074;1258;139307;-50
2024/02/20 20:15:57;;;;;;;6.50;4.00;;;;;;;4.66;100.00;99948.13;438311;1258;139956;-53
2024/02/20 20:26:04;;;;;;;5.00;2.30;;;;;;;4.54;100.00;99950.80;451667;1255;139486;-52
2024/02/20 20:36:10;;;;;;;4.70;3.60;;;;;;;4.40;100.00;99958.20;451439;1255;140619;-51
2024/02/20 20:46:16;;;;;;;4.10;2.60;;;;;;;4.21;100.00;99956.01;451631;1255;139123;-51
2024/02/20 20:56:23;;;;;;;5.20;3.50;;;;;;;3.97;100.00;99963.15;451547;1255;140506;-49
2024/02/20 21:06:30;;;;;;;5.60;3.30;;;;;;;3.82;100.00;99958.94;451735;1255;139327;-62
2024/02/20 21:16:36;;;;;;;6.50;3.10;;;;;;;3.76;100.00;99965.67;451694;1253;139839;-58
2024/02/20 21:26:42;;;;;;;10.20;4.90;;;;;;;3.81;100.00;99971.96;451566;1253;139193;-61
2024/02/20 21:36:48;;;;;;;7.10;4.00;;;;;;;3.87;100.00;99973.52;451627;1256;140399;-62
2024/02/20 21:46:54;;;;;;;7.20;4.00;;;;;;;3.93;100.00;99968.48;451321;1254;139309;-59
2024/02/20 21:57:00;;;;;;;9.90;5.20;;;;;;;3.89;100.00;99968.77;451485;1254;139351;-59
2024/02/20 22:07:06;;;;;;;8.70;5.00;;;;;;;3.82;100.00;99972.80;451660;1256;139587;-50
2024/02/20 22:17:13;;;;;;;8.80;5.10;;;;;;;3.76;100.00;99976.95;451536;1254;139507;-52
2024/02/20 22:27:19;;;;;;;7.80;3.80;;;;;;;3.70;100.00;99976.61;451630;1253;139007;-60
2024/02/20 22:37:25;;;;;;;5.10;3.80;;;;;;;3.62;100.00;99973.89;451588;1253;139401;-59
2024/02/20 22:47:32;;;;;;;10.60;6.30;;;;;;;3.58;100.00;99974.87;451172;1254;139488;-59
2024/02/20 22:57:38;;;;;;;7.20;4.60;;;;;;;3.57;100.00;99972.14;451031;1254;139633;-59
2024/02/20 23:07:44;;;;;;;7.40;5.90;;;;;;;3.60;100.00;99974.98;451291;1253;139401;-63
2024/02/20 23:17:50;;;;;;;7.20;4.00;;;;;;;3.57;100.00;99973.52;451339;1254;139442;-61
2024/02/20 23:27:58;;;;;;;10.90;7.40;;;;;;;3.56;100.00;99967.31;451240;1254;139671;-59
2024/02/20 23:38:06;;;;;;;11.00;4.60;;;;;;;3.55;100.00;99962.49;441313;1254;139824;-59
2024/02/20 23:48:12;;;;;;;12.80;6.20;;;;;;;3.57;100.00;99964.85;438409;1254;140159;-57
2024/02/20 23:58:18;;;;;;;13.40;6.10;;;;;;;3.55;100.00;99960.77;438213;1256;139659;-59
